createdAt,value
2019-04-29T00:03:11.262Z,53.00
2019-04-29T00:08:02.173Z,53.10
2019-04-29T00:12:53.082Z,54.30
2019-04-29T00:17:46.818Z,54.30
2019-04-29T00:22:37.725Z,54.40
2019-04-29T00:27:28.657Z,54.70
2019-04-29T00:32:20.443Z,53.50
2019-04-29T00:37:17.467Z,53.40
2019-04-29T00:42:08.389Z,53.50
2019-04-29T00:46:59.308Z,54.00
2019-04-29T00:51:50.223Z,54.60
2019-04-29T00:56:41.113Z,54.80
2019-04-29T01:01:32.009Z,55.10
2019-04-29T01:06:22.890Z,54.70
2019-04-29T01:11:13.761Z,54.00
2019-04-29T01:16:04.637Z,53.70
2019-04-29T01:20:56.274Z,54.80
2019-04-29T01:25:47.914Z,55.20
2019-04-29T01:30:54.516Z,55.30
2019-04-29T01:35:45.418Z,55.30
2019-04-29T01:40:38.854Z,54.00
2019-04-29T01:45:29.750Z,54.00
2019-04-29T01:50:20.647Z,54.10
2019-04-29T01:55:11.535Z,54.80
2019-04-29T02:00:02.412Z,55.20
2019-04-29T02:04:53.344Z,55.60
2019-04-29T02:09:44.234Z,55.80
2019-04-29T02:14:35.122Z,55.50
2019-04-29T02:19:33.713Z,54.50
2019-04-29T02:24:25.346Z,55.00
2019-04-29T02:29:16.975Z,55.40
2019-04-29T02:34:07.889Z,55.30
2019-04-29T02:38:59.784Z,55.70
2019-04-29T02:43:50.691Z,56.10
2019-04-29T02:48:41.582Z,55.80
2019-04-29T02:53:33.215Z,55.10
2019-04-29T02:58:26.654Z,55.50
2019-04-29T03:03:19.416Z,55.40
2019-04-29T03:08:10.303Z,55.90
2019-04-29T03:13:01.191Z,56.40
2019-04-29T03:17:52.830Z,56.40
2019-04-29T03:22:44.470Z,56.20
2019-04-29T03:27:35.359Z,55.60
2019-04-29T03:32:26.349Z,55.40
2019-04-29T03:37:17.255Z,55.90
2019-04-29T03:42:08.142Z,56.40
2019-04-29T03:46:59.770Z,57.10
2019-04-29T03:51:51.414Z,57.10
2019-04-29T03:56:42.313Z,57.00
2019-04-29T04:01:34.021Z,56.20
2019-04-29T04:06:24.939Z,56.00
2019-04-29T04:11:15.835Z,56.30
2019-04-29T04:16:06.862Z,57.00
2019-04-29T04:20:57.741Z,57.20
2019-04-29T04:25:49.367Z,57.60
2019-04-29T04:30:41.012Z,56.30
2019-04-29T04:35:32.654Z,56.10
2019-04-29T04:40:24.281Z,56.50
2019-04-29T04:45:15.901Z,57.30
2019-04-29T04:50:06.786Z,57.30
2019-04-29T04:54:57.689Z,57.90
2019-04-29T04:59:48.586Z,58.20
2019-04-29T05:04:39.477Z,58.70
2019-04-29T05:09:30.361Z,57.40
2019-04-29T05:14:21.253Z,56.50
2019-04-29T05:19:12.150Z,57.30
2019-04-29T05:24:03.786Z,58.30
2019-04-29T05:28:54.688Z,58.30
2019-04-29T05:33:45.581Z,58.50
2019-04-29T05:38:36.606Z,59.00
2019-04-29T05:43:32.038Z,58.30
2019-04-29T05:48:21.862Z,57.60
2019-04-29T05:53:16.261Z,58.70
2019-04-29T05:58:10.452Z,58.70
2019-04-29T06:03:02.081Z,59.70
2019-04-29T06:07:56.274Z,59.70
2019-04-29T06:12:44.755Z,59.70
2019-04-29T06:17:35.649Z,58.70
2019-04-29T06:22:26.537Z,58.20
2019-04-29T06:27:17.425Z,58.30
2019-04-29T06:32:08.875Z,58.70
2019-04-29T06:36:59.767Z,59.10
2019-04-29T06:41:50.678Z,59.50
2019-04-29T06:46:41.564Z,59.80
2019-04-29T06:51:32.583Z,59.10
2019-04-29T06:56:23.478Z,58.60
2019-04-29T07:01:14.395Z,58.90
2019-04-29T07:06:05.283Z,59.60
2019-04-29T07:11:01.104Z,60.10
2019-04-29T07:15:49.057Z,61.40
2019-04-29T07:20:39.637Z,61.10
2019-04-29T07:25:31.276Z,59.80
2019-04-29T07:30:22.167Z,59.80
2019-04-29T07:35:13.073Z,59.30
2019-04-29T07:40:08.156Z,59.90
2019-04-29T07:45:01.239Z,60.70
2019-04-29T07:49:53.020Z,61.20
2019-04-29T07:54:43.056Z,60.90
2019-04-29T07:59:38.474Z,58.80
2019-04-29T08:04:25.795Z,58.70
2019-04-29T08:09:16.669Z,59.60
2019-04-29T08:14:07.549Z,60.70
2019-04-29T08:18:59.178Z,60.60
2019-04-29T08:23:50.813Z,60.60
2019-04-29T08:28:42.462Z,60.60
2019-04-29T08:33:33.366Z,60.60
2019-04-29T08:38:24.996Z,59.00
2019-04-29T08:43:22.331Z,59.10
2019-04-29T08:48:12.280Z,60.20
2019-04-29T08:53:03.187Z,59.60
2019-04-29T08:57:54.804Z,60.60
2019-04-29T09:02:47.101Z,60.60
2019-04-29T09:07:36.603Z,60.60
2019-04-29T09:12:29.345Z,59.10
2019-04-29T09:17:20.501Z,58.60
2019-04-29T09:22:09.355Z,59.40
2019-04-29T09:27:05.009Z,60.20
2019-04-29T09:31:52.862Z,60.90
2019-04-29T09:36:48.079Z,60.90
2019-04-29T09:41:35.228Z,60.70
2019-04-29T09:46:30.073Z,59.20
2019-04-29T09:51:18.334Z,59.20
2019-04-29T09:56:08.208Z,58.90
2019-04-29T10:01:02.806Z,60.60
2019-04-29T10:05:54.455Z,60.90
2019-04-29T10:10:45.356Z,60.90
2019-04-29T10:15:40.848Z,59.30
2019-04-29T10:20:33.690Z,59.30
2019-04-29T10:25:25.573Z,58.70
2019-04-29T10:30:17.192Z,59.70
2019-04-29T10:35:09.244Z,59.80
2019-04-29T10:40:11.344Z,60.60
2019-04-29T10:44:57.046Z,60.40
2019-04-29T10:49:49.805Z,59.10
2019-04-29T10:54:39.595Z,59.00
2019-04-29T10:59:35.978Z,59.10
2019-04-29T11:04:22.868Z,60.10
2019-04-29T11:09:16.151Z,60.20
2019-04-29T11:14:06.969Z,60.60
2019-04-29T11:19:00.227Z,60.30
2019-04-29T11:23:50.596Z,60.30
2019-04-29T11:28:41.294Z,59.00
2019-04-29T11:33:35.609Z,58.80
2019-04-29T11:38:23.102Z,59.20
2019-04-29T11:43:15.582Z,60.40
2019-04-29T11:48:05.638Z,60.40
2019-04-29T11:53:04.180Z,59.80
2019-04-29T11:57:58.022Z,59.80
2019-04-29T12:02:49.893Z,58.90
2019-04-29T12:07:40.772Z,59.20
2019-04-29T12:12:32.408Z,59.90
2019-04-29T12:17:24.149Z,59.90
2019-04-29T12:22:28.352Z,60.40
2019-04-29T12:27:07.421Z,60.00
2019-04-29T12:31:58.304Z,60.00
2019-04-29T12:36:55.806Z,58.60
2019-04-29T12:42:04.509Z,58.60
2019-04-29T12:46:52.215Z,58.80
2019-04-29T12:51:43.849Z,59.70
2019-04-29T12:56:35.481Z,60.40
2019-04-29T13:01:50.389Z,59.40
2019-04-29T13:06:23.878Z,58.70
2019-04-29T13:11:14.735Z,58.70
2019-04-29T13:16:08.054Z,59.20
2019-04-29T13:21:09.868Z,60.00
2019-04-29T13:25:50.903Z,59.90
2019-04-29T13:30:43.327Z,60.40
2019-04-29T13:35:31.750Z,60.00
2019-04-29T13:40:22.806Z,58.90
2019-04-29T13:45:14.109Z,58.70
2019-04-29T13:50:18.119Z,58.80
2019-04-29T13:54:55.483Z,59.30
2019-04-29T13:59:51.325Z,59.40
2019-04-29T14:04:45.174Z,60.30
2019-04-29T14:09:39.262Z,59.10
2019-04-29T14:14:28.368Z,58.40
2019-04-29T14:19:20.541Z,58.50
2019-04-29T14:24:09.625Z,59.10
2019-04-29T14:29:01.251Z,60.30
2019-04-29T14:34:09.801Z,59.10
2019-04-29T14:39:01.434Z,58.80
2019-04-29T14:43:56.972Z,58.80
2019-04-29T14:48:59.437Z,58.90
2019-04-29T14:53:56.094Z,58.80
2019-04-29T14:58:38.757Z,58.30
2019-04-29T15:08:48.480Z,59.20
2019-04-29T15:13:43.157Z,57.80
2019-04-29T15:18:45.850Z,57.50
2019-04-29T15:23:30.070Z,58.80
2019-04-29T15:28:14.973Z,59.70
2019-04-29T15:33:05.872Z,59.70
2019-04-29T15:37:57.520Z,56.60
2019-04-29T15:42:50.076Z,56.50
2019-04-29T15:47:41.594Z,57.10
2019-04-29T15:52:31.010Z,57.00
2019-04-29T15:57:21.901Z,57.50
2019-04-29T16:02:13.537Z,56.50
2019-04-29T16:07:08.044Z,54.70
2019-04-29T16:12:05.157Z,54.00
2019-04-29T16:16:50.593Z,53.90
2019-04-29T16:21:42.241Z,54.70
2019-04-29T16:26:33.187Z,54.80
2019-04-29T16:31:24.111Z,55.00
2019-04-29T16:36:15.009Z,54.80
2019-04-29T16:41:06.246Z,54.00
2019-04-29T16:45:57.137Z,52.70
2019-04-29T16:50:48.780Z,53.40
2019-04-29T16:55:43.228Z,53.40
2019-04-29T17:00:30.594Z,53.80
2019-04-29T17:05:22.398Z,52.90
2019-04-29T17:10:14.266Z,52.90
2019-04-29T17:15:23.559Z,52.30
2019-04-29T17:19:56.087Z,53.00
2019-04-29T17:24:47.086Z,52.80
2019-04-29T17:29:48.811Z,53.50
2019-04-29T17:35:19.750Z,52.30
2019-04-29T17:39:24.458Z,52.30
2019-04-29T17:44:21.193Z,51.90
2019-04-29T17:49:18.241Z,52.00
2019-04-29T17:54:09.143Z,52.40
2019-04-29T17:59:00.998Z,52.50
2019-04-29T18:03:53.672Z,52.00
2019-04-29T18:08:48.558Z,51.20
2019-04-29T18:13:40.288Z,48.90
2019-04-29T18:18:45.425Z,50.20
2019-04-29T18:23:31.026Z,50.10
2019-04-29T18:28:21.913Z,50.30
2019-04-29T18:33:12.915Z,50.10
2019-04-29T18:38:07.646Z,49.60
2019-04-29T18:42:55.373Z,49.20
2019-04-29T18:47:45.692Z,48.70
2019-04-29T18:52:36.575Z,49.40
2019-04-29T18:57:30.681Z,49.60
2019-04-29T19:02:18.379Z,49.40
2019-04-29T19:07:10.018Z,47.90
2019-04-29T19:12:01.639Z,47.20
2019-04-29T19:16:52.701Z,47.10
2019-04-29T19:21:43.450Z,46.60
2019-04-29T19:26:35.046Z,47.40
2019-04-29T19:31:25.669Z,47.60
2019-04-29T19:36:18.569Z,47.80
2019-04-29T19:41:07.497Z,47.00
2019-04-29T19:45:58.396Z,47.20
2019-04-29T19:51:06.685Z,48.20
2019-04-29T19:55:42.187Z,48.20
2019-04-29T20:00:32.217Z,48.50
2019-04-29T20:05:31.701Z,48.80
2019-04-29T20:10:16.963Z,49.50
2019-04-29T20:15:08.503Z,48.60
2019-04-29T20:20:00.293Z,48.50
2019-04-29T20:24:50.749Z,48.90
2019-04-29T20:29:39.654Z,49.20
2019-04-29T20:34:30.702Z,49.30
2019-04-29T20:39:23.529Z,49.70
2019-04-29T20:44:13.154Z,48.90
2019-04-29T20:49:05.719Z,48.80
2019-04-29T20:53:58.793Z,49.10
2019-04-29T20:58:50.388Z,49.20
2019-04-29T21:03:45.228Z,49.00
2019-04-29T21:08:32.804Z,49.80
2019-04-29T21:13:29.608Z,50.70
2019-04-29T21:18:20.528Z,49.70
2019-04-29T21:23:11.419Z,48.90
2019-04-29T21:28:03.105Z,49.20
2019-04-29T21:32:55.808Z,49.20
2019-04-29T21:37:48.068Z,50.90
2019-04-29T21:42:47.088Z,50.80
2019-04-29T21:47:44.294Z,51.30
2019-04-29T21:52:27.080Z,50.40
2019-04-29T21:57:23.895Z,50.40
2019-04-29T22:02:11.526Z,50.50
2019-04-29T22:07:04.805Z,50.50
2019-04-29T22:11:51.501Z,50.80
2019-04-29T22:16:42.405Z,51.20
2019-04-29T22:21:33.296Z,51.50
2019-04-29T22:26:26.869Z,51.20
2019-04-29T22:31:18.205Z,51.20
2019-04-29T22:36:10.249Z,50.60
2019-04-29T22:40:57.683Z,50.70
2019-04-29T22:45:48.576Z,51.10
2019-04-29T22:50:39.618Z,51.50
2019-04-29T22:55:30.831Z,51.80
2019-04-29T23:00:21.291Z,52.20
2019-04-29T23:05:12.173Z,52.40
2019-04-29T23:10:05.665Z,50.80
2019-04-29T23:14:56.488Z,50.60
2019-04-29T23:19:50.230Z,51.50
2019-04-29T23:24:38.204Z,51.50
2019-04-29T23:29:29.851Z,52.00
2019-04-29T23:34:25.837Z,52.00
2019-04-29T23:39:11.783Z,52.90
2019-04-29T23:44:05.162Z,51.30
2019-04-29T23:48:56.508Z,51.30
2019-04-29T23:53:45.348Z,51.30
2019-04-29T23:58:42.941Z,52.80
